Time;durP1;ratioP1;P1;durP2;ratioP2;P2;SDS_P1;SDS_P2;PMS_P1;PMS_P2;Temp;Humidity;BMP_temperature;BMP_pressure;BME280_temperature;BME280_humidity;BME280_pressure;Samples;Min_cycle;Max_cycle;Signal;HPM_P1;HPM_P2
2023/08/30 00:01:22;;;;;;;10.25;1.73;;;12.20;99.90;;;;;;5070691;28;20048;-59
2023/08/30 00:03:50;;;;;;;13.77;2.25;;;12.10;99.90;;;;;;5069497;28;20040;-58
2023/08/30 00:06:18;;;;;;;13.85;2.22;;;12.10;99.90;;;;;;5053163;28;20052;-58
2023/08/30 00:08:46;;;;;;;7.13;1.90;;;12.10;99.90;;;;;;5049043;28;20056;-58
2023/08/30 00:11:14;;;;;;;13.70;2.35;;;12.00;99.90;;;;;;5050531;28;20052;-58
2023/08/30 00:13:42;;;;;;;12.68;2.35;;;12.00;99.90;;;;;;5057061;28;20048;-58
2023/08/30 00:16:10;;;;;;;15.40;2.20;;;11.90;99.90;;;;;;5054651;28;20053;-61
2023/08/30 00:18:37;;;;;;;12.93;2.53;;;11.90;99.90;;;;;;5051808;28;20048;-58
2023/08/30 00:21:06;;;;;;;9.55;1.83;;;11.90;99.90;;;;;;5069778;28;20089;-59
2023/08/30 00:23:34;;;;;;;13.65;2.20;;;11.80;99.90;;;;;;5059687;28;20060;-58
2023/08/30 00:26:02;;;;;;;8.70;1.80;;;11.80;99.90;;;;;;5050312;28;20045;-58
2023/08/30 00:28:29;;;;;;;11.98;2.03;;;11.90;99.90;;;;;;5044167;28;20049;-59
2023/08/30 00:30:57;;;;;;;10.25;1.58;;;11.90;99.90;;;;;;5050064;28;20045;-58
2023/08/30 00:33:25;;;;;;;8.50;1.77;;;11.90;99.90;;;;;;5057826;28;20049;-58
2023/08/30 00:35:57;;;;;;;11.82;2.05;;;11.90;99.90;;;;;;5052499;28;20045;-58
2023/08/30 00:38:27;;;;;;;11.38;1.73;;;12.00;99.90;;;;;;5048568;28;20052;-59
2023/08/30 00:40:55;;;;;;;;;;;12.00;99.90;;;;;;5046251;28;20507;-58
2023/08/30 00:43:23;;;;;;;9.88;2.42;;;12.00;99.90;;;;;;5056217;28;19927;-59
2023/08/30 00:45:51;;;;;;;8.50;1.42;;;12.00;99.90;;;;;;5055653;28;20053;-58
2023/08/30 00:48:22;;;;;;;12.07;2.20;;;12.00;99.90;;;;;;5048370;28;20045;-58
2023/08/30 00:50:51;;;;;;;8.93;1.83;;;12.00;99.90;;;;;;5055325;28;20040;-58
2023/08/30 00:53:19;;;;;;;10.63;2.22;;;12.00;99.90;;;;;;5061922;28;20060;-58
2023/08/30 00:55:47;;;;;;;17.05;2.22;;;12.00;99.90;;;;;;5048008;28;20052;-58
2023/08/30 00:58:15;;;;;;;8.30;2.05;;;12.00;99.90;;;;;;5045256;28;20136;-58
2023/08/30 01:00:42;;;;;;;8.90;2.03;;;11.90;99.90;;;;;;5048300;28;20049;-58
2023/08/30 01:03:10;;;;;;;10.02;2.63;;;11.90;99.90;;;;;;5052679;28;20419;-58
2023/08/30 01:05:38;;;;;;;11.73;1.90;;;11.80;99.90;;;;;;5033808;28;20041;-58
2023/08/30 01:08:06;;;;;;;11.90;2.00;;;11.80;99.90;;;;;;5037573;28;20064;-58
2023/08/30 01:10:52;;;;;;;11.02;2.60;;;11.80;99.90;;;;;;5048104;28;20045;-58
2023/08/30 01:13:21;;;;;;;13.02;2.70;;;11.80;99.90;;;;;;5041614;28;20476;-58
2023/08/30 01:15:52;;;;;;;9.85;1.95;;;11.80;99.90;;;;;;5039501;28;20052;-58
2023/08/30 01:18:28;;;;;;;9.13;2.47;;;11.80;99.90;;;;;;5020253;28;20055;-58
2023/08/30 01:20:58;;;;;;;14.80;2.33;;;11.90;99.90;;;;;;5067712;28;20475;-58
2023/08/30 01:24:03;;;;;;;9.52;2.05;;;11.90;99.90;;;;;;5060142;28;20045;-58
2023/08/30 01:26:50;;;;;;;9.02;1.95;;;11.90;99.90;;;;;;5030370;28;20131;-58
2023/08/30 01:29:19;;;;;;;13.90;2.35;;;11.90;99.90;;;;;;5046642;28;20056;-58
2023/08/30 01:31:48;;;;;;;20.17;3.58;;;11.90;99.90;;;;;;5035390;28;20049;-58
2023/08/30 01:34:16;;;;;;;8.97;2.43;;;11.90;99.90;;;;;;5031078;28;20049;-58
2023/08/30 01:36:44;;;;;;;15.13;3.45;;;11.90;99.90;;;;;;5050535;28;20044;-58
2023/08/30 01:39:14;;;;;;;9.82;2.30;;;11.90;99.90;;;;;;5062342;28;20047;-58
2023/08/30 01:41:42;;;;;;;11.13;2.60;;;11.90;99.90;;;;;;5072204;28;20437;-58
2023/08/30 01:44:12;;;;;;;11.77;2.13;;;11.90;99.90;;;;;;5054616;28;20057;-58
2023/08/30 01:46:40;;;;;;;14.63;3.13;;;11.90;99.90;;;;;;5043788;28;20045;-58
2023/08/30 01:49:09;;;;;;;10.65;2.03;;;11.90;99.90;;;;;;5047156;28;20045;-58
2023/08/30 01:51:38;;;;;;;9.48;2.55;;;11.90;99.90;;;;;;5055183;28;20044;-58
2023/08/30 01:54:06;;;;;;;7.20;2.05;;;11.90;99.90;;;;;;5052867;28;20047;-58
2023/08/30 01:56:34;;;;;;;7.43;2.10;;;12.00;99.90;;;;;;5051787;28;20497;-58
2023/08/30 01:59:01;;;;;;;10.93;2.22;;;12.00;99.90;;;;;;5050079;28;20040;-58
2023/08/30 02:01:29;;;;;;;13.23;2.20;;;12.00;99.90;;;;;;5050411;28;20041;-58
2023/08/30 02:03:58;;;;;;;8.32;2.33;;;12.00;99.90;;;;;;5051740;28;20408;-58
2023/08/30 02:07:01;;;;;;;7.85;2.47;;;12.00;99.90;;;;;;5047272;28;20061;-58
2023/08/30 02:09:38;;;;;;;10.23;2.67;;;12.00;99.90;;;;;;5050342;28;20060;-58
2023/08/30 02:12:17;;;;;;;9.35;2.20;;;11.90;99.90;;;;;;5050161;28;20044;-58
2023/08/30 02:14:48;;;;;;;11.65;1.85;;;11.90;99.90;;;;;;5049723;28;20065;-58
2023/08/30 02:17:17;;;;;;;12.48;2.00;;;11.90;99.90;;;;;;5051132;28;20045;-58
2023/08/30 02:19:45;;;;;;;10.80;2.30;;;11.90;99.90;;;;;;5046326;28;20032;-58
2023/08/30 02:22:17;;;;;;;12.52;2.67;;;11.80;99.90;;;;;;5067680;28;20044;-58
2023/08/30 02:24:45;;;;;;;17.95;2.47;;;11.80;99.90;;;;;;5069185;28;20052;-58
2023/08/30 02:27:13;;;;;;;8.80;3.13;;;11.80;99.90;;;;;;5050236;28;20045;-58
2023/08/30 02:29:41;;;;;;;12.05;2.40;;;11.80;99.90;;;;;;5051019;28;20045;-58
2023/08/30 02:32:08;;;;;;;10.52;2.72;;;11.90;99.90;;;;;;5050241;28;20413;-58
2023/08/30 02:34:37;;;;;;;6.18;2.25;;;11.90;99.90;;;;;;5051602;28;20124;-59
2023/08/30 02:37:04;;;;;;;10.35;2.40;;;11.90;99.90;;;;;;5033373;28;20064;-59
2023/08/30 02:39:32;;;;;;;13.20;2.38;;;11.90;99.90;;;;;;5051412;28;20041;-59
2023/08/30 02:42:00;;;;;;;9.13;2.30;;;12.00;99.90;;;;;;5033342;28;20045;-58
2023/08/30 02:44:28;;;;;;;3.20;1.77;;;11.90;99.90;;;;;;5051178;28;20053;-61
2023/08/30 02:46:55;;;;;;;12.43;2.38;;;11.90;99.90;;;;;;5046795;28;20037;-60
2023/08/30 02:49:23;;;;;;;7.05;2.03;;;11.90;99.90;;;;;;5051482;28;20408;-58
2023/08/30 02:51:51;;;;;;;11.75;2.00;;;11.90;99.90;;;;;;5064796;28;20404;-58
2023/08/30 02:54:18;;;;;;;13.40;2.75;;;11.90;99.90;;;;;;5070318;28;20550;-58
2023/08/30 02:56:46;;;;;;;9.95;1.75;;;11.90;99.90;;;;;;5071241;28;20048;-59
2023/08/30 02:59:14;;;;;;;7.00;2.20;;;11.90;99.90;;;;;;5062500;28;20532;-58
2023/08/30 03:01:41;;;;;;;7.43;1.92;;;12.00;99.90;;;;;;5047847;28;20053;-59
2023/08/30 03:04:10;;;;;;;8.25;1.92;;;12.00;99.90;;;;;;5049747;28;20053;-58
2023/08/30 03:06:38;;;;;;;17.70;2.42;;;12.00;99.90;;;;;;5049419;28;20045;-58
2023/08/30 03:09:06;;;;;;;11.32;2.25;;;11.90;99.90;;;;;;5049631;28;20062;-58
2023/08/30 03:11:36;;;;;;;;;;;12.00;99.90;;;;;;5033961;28;20041;-59
2023/08/30 03:14:04;;;;;;;9.48;2.08;;;11.90;99.90;;;;;;5049881;28;19921;-59
2023/08/30 03:16:31;;;;;;;13.65;2.20;;;11.90;99.90;;;;;;5049851;28;20037;-58
2023/08/30 03:19:00;;;;;;;11.55;1.92;;;11.90;99.90;;;;;;5050970;28;20048;-58
2023/08/30 03:21:29;;;;;;;9.55;1.75;;;11.90;99.90;;;;;;5051745;28;20044;-59
2023/08/30 03:23:57;;;;;;;13.48;2.13;;;11.90;99.90;;;;;;5069681;28;20036;-58
2023/08/30 03:26:25;;;;;;;9.90;2.40;;;11.90;99.90;;;;;;5070950;28;20535;-59
2023/08/30 03:28:54;;;;;;;10.00;2.05;;;11.80;99.90;;;;;;5069845;28;20408;-59
2023/08/30 03:31:22;;;;;;;8.73;1.98;;;11.80;99.90;;;;;;5056862;28;20512;-58
2023/08/30 03:33:51;;;;;;;12.65;2.10;;;11.70;99.90;;;;;;5073185;28;20044;-58
2023/08/30 03:36:19;;;;;;;7.40;2.25;;;11.70;99.90;;;;;;5061083;28;20041;-58
2023/08/30 03:38:46;;;;;;;7.68;1.95;;;11.70;99.90;;;;;;5054320;28;20529;-59
2023/08/30 03:41:14;;;;;;;9.52;1.90;;;11.70;99.90;;;;;;5054166;28;20045;-58
2023/08/30 03:43:44;;;;;;;6.45;1.88;;;11.70;99.90;;;;;;5036984;28;20049;-59
2023/08/30 03:46:12;;;;;;;6.25;1.92;;;11.70;99.90;;;;;;5053133;28;20578;-59
2023/08/30 03:48:40;;;;;;;9.93;2.20;;;11.70;99.90;;;;;;5054089;28;20060;-58
2023/08/30 03:51:07;;;;;;;9.02;1.70;;;11.70;99.90;;;;;;5062023;28;20045;-58
2023/08/30 03:53:35;;;;;;;10.77;2.70;;;11.70;99.90;;;;;;5072899;28;20036;-59
2023/08/30 03:56:03;;;;;;;3.97;1.60;;;11.70;99.90;;;;;;5072993;28;20041;-58
2023/08/30 03:58:31;;;;;;;8.25;2.30;;;11.70;99.90;;;;;;5074265;28;20440;-58
2023/08/30 04:00:59;;;;;;;10.68;2.00;;;11.70;99.90;;;;;;5068776;28;20041;-58
2023/08/30 04:03:27;;;;;;;5.32;1.90;;;11.70;99.90;;;;;;5052795;28;20606;-58
2023/08/30 04:05:58;;;;;;;6.47;2.10;;;11.70;99.90;;;;;;5052609;28;20616;-59
2023/08/30 04:08:26;;;;;;;10.15;2.30;;;11.60;99.90;;;;;;5053741;28;20045;-58
2023/08/30 04:10:54;;;;;;;8.45;2.33;;;11.60;99.90;;;;;;5053919;28;20036;-58
2023/08/30 04:13:22;;;;;;;7.10;1.95;;;11.60;99.90;;;;;;5053745;28;20045;-58
2023/08/30 04:15:49;;;;;;;10.30;2.92;;;11.70;99.90;;;;;;5053968;28;20417;-58
2023/08/30 04:18:17;;;;;;;15.27;2.25;;;11.70;99.90;;;;;;5053437;28;20053;-58
2023/08/30 04:20:45;;;;;;;9.63;2.25;;;11.70;99.90;;;;;;5057321;28;20048;-58
2023/08/30 04:23:14;;;;;;;8.90;1.90;;;11.70;99.90;;;;;;5072299;28;20067;-59
2023/08/30 04:25:42;;;;;;;12.50;2.70;;;11.70;99.90;;;;;;5072452;28;20044;-59
2023/08/30 04:28:10;;;;;;;10.73;2.03;;;11.70;99.90;;;;;;5073294;28;20511;-58
2023/08/30 04:30:39;;;;;;;6.82;2.55;;;11.60;99.90;;;;;;5072321;28;20491;-58
2023/08/30 04:33:08;;;;;;;10.95;2.10;;;11.70;99.90;;;;;;5072217;28;20049;-58
2023/08/30 04:35:35;;;;;;;7.82;1.80;;;11.60;99.90;;;;;;5066268;28;20553;-58
2023/08/30 04:38:03;;;;;;;6.50;1.90;;;11.50;99.90;;;;;;5051952;28;20040;-59
2023/08/30 04:40:32;;;;;;;12.27;2.40;;;11.50;99.90;;;;;;5051690;28;20037;-58
2023/08/30 04:43:01;;;;;;;8.45;2.10;;;11.40;99.90;;;;;;5051915;28;20040;-58
2023/08/30 04:45:29;;;;;;;8.40;2.05;;;11.30;99.90;;;;;;5052778;28;20048;-58
2023/08/30 04:47:57;;;;;;;8.18;2.40;;;11.20;99.90;;;;;;5036548;28;20049;-58
2023/08/30 04:50:27;;;;;;;11.18;2.42;;;11.20;99.90;;;;;;5033362;28;20493;-58
2023/08/30 04:52:57;;;;;;;16.40;3.45;;;11.10;99.90;;;;;;5069495;28;20044;-58
2023/08/30 04:55:30;;;;;;;6.28;2.40;;;11.00;99.90;;;;;;5068246;28;20496;-58
2023/08/30 04:57:59;;;;;;;5.47;1.92;;;11.00;99.90;;;;;;5061287;28;20053;-58
2023/08/30 05:00:33;;;;;;;10.68;2.42;;;10.90;99.90;;;;;;5048434;28;20055;-58
2023/08/30 05:03:00;;;;;;;10.18;2.20;;;10.80;99.90;;;;;;5037039;28;20088;-58
2023/08/30 05:05:31;;;;;;;12.95;2.58;;;10.80;99.90;;;;;;5030105;28;20041;-58
2023/08/30 05:07:59;;;;;;;10.13;2.33;;;10.70;99.90;;;;;;5035535;28;20049;-58
2023/08/30 05:10:27;;;;;;;9.50;2.30;;;10.70;99.90;;;;;;5056332;28;20049;-59
2023/08/30 05:12:55;;;;;;;8.13;2.50;;;10.70;99.90;;;;;;5048479;28;20041;-58
2023/08/30 05:15:23;;;;;;;7.57;2.80;;;10.70;99.90;;;;;;5048286;28;20041;-59
2023/08/30 05:17:51;;;;;;;8.13;2.35;;;10.70;99.90;;;;;;5045393;28;20034;-58
2023/08/30 05:20:19;;;;;;;13.48;2.88;;;10.80;99.90;;;;;;5048867;28;20048;-58
2023/08/30 05:22:46;;;;;;;13.25;2.97;;;10.80;99.90;;;;;;5059018;28;20058;-59
2023/08/30 05:25:14;;;;;;;6.30;2.42;;;10.80;99.90;;;;;;5047918;28;20056;-59
2023/08/30 05:27:42;;;;;;;8.98;2.85;;;10.80;99.90;;;;;;5048048;28;20056;-59
2023/08/30 05:30:11;;;;;;;6.95;2.33;;;10.80;99.90;;;;;;5031126;28;20060;-59
2023/08/30 05:32:40;;;;;;;14.32;2.60;;;10.70;99.90;;;;;;5045664;28;20048;-59
2023/08/30 05:35:18;;;;;;;14.13;2.88;;;10.80;99.90;;;;;;5031365;28;20052;-59
2023/08/30 05:38:04;;;;;;;9.15;2.63;;;10.80;99.90;;;;;;5054827;28;20066;-59
2023/08/30 05:40:45;;;;;;;12.00;2.60;;;10.80;99.90;;;;;;5065681;28;20044;-59
2023/08/30 05:43:13;;;;;;;6.38;2.55;;;10.80;99.90;;;;;;5047258;28;20404;-60
2023/08/30 05:45:41;;;;;;;7.70;3.28;;;10.90;99.90;;;;;;5047722;28;20045;-59
2023/08/30 05:48:09;;;;;;;7.95;2.83;;;10.90;99.90;;;;;;5042408;28;20048;-59
2023/08/30 05:50:37;;;;;;;9.55;2.92;;;10.90;99.90;;;;;;5047603;28;20431;-59
2023/08/30 05:53:05;;;;;;;5.50;2.00;;;10.90;99.90;;;;;;5065241;28;20051;-58
2023/08/30 05:55:33;;;;;;;7.93;1.95;;;11.00;99.90;;;;;;5068476;28;20138;-59
2023/08/30 05:58:01;;;;;;;10.48;2.30;;;10.90;99.90;;;;;;5056615;28;20037;-58
2023/08/30 06:00:29;;;;;;;8.75;2.00;;;10.90;99.90;;;;;;5046550;28;20056;-59
2023/08/30 06:02:56;;;;;;;8.80;2.20;;;10.90;99.90;;;;;;5045759;28;20069;-58
2023/08/30 06:05:24;;;;;;;6.90;2.28;;;10.90;99.90;;;;;;5015156;28;20056;-59
2023/08/30 06:07:52;;;;;;;11.60;2.10;;;11.00;99.90;;;;;;5053394;28;20476;-58
2023/08/30 06:10:20;;;;;;;10.30;2.00;;;11.00;99.90;;;;;;5068238;28;20057;-59
2023/08/30 06:12:48;;;;;;;5.45;2.22;;;10.90;99.90;;;;;;5057328;28;20053;-59
2023/08/30 06:15:16;;;;;;;8.82;2.30;;;11.00;99.90;;;;;;5047416;28;20045;-59
2023/08/30 06:17:43;;;;;;;5.00;1.92;;;11.00;99.90;;;;;;5047944;28;20049;-59
2023/08/30 06:20:11;;;;;;;9.52;2.00;;;11.00;99.90;;;;;;5040392;28;20060;-59
2023/08/30 06:22:42;;;;;;;5.20;1.98;;;11.00;99.90;;;;;;5059958;28;20037;-59
2023/08/30 06:25:12;;;;;;;5.65;1.77;;;11.00;99.90;;;;;;5047940;28;20477;-59
2023/08/30 06:28:01;;;;;;;5.68;1.98;;;11.00;99.90;;;;;;5046585;28;20052;-59
2023/08/30 06:30:29;;;;;;;7.38;1.85;;;11.10;99.90;;;;;;5048049;28;20052;-59
2023/08/30 06:32:57;;;;;;;5.45;2.00;;;11.10;99.90;;;;;;5056439;28;20041;-59
2023/08/30 06:35:25;;;;;;;3.67;1.77;;;11.10;99.90;;;;;;5059942;28;20041;-59
2023/08/30 06:37:53;;;;;;;4.18;1.73;;;11.20;99.90;;;;;;5039158;28;20476;-59
2023/08/30 06:40:20;;;;;;;7.18;2.47;;;11.20;99.90;;;;;;5068036;28;20052;-59
2023/08/30 06:42:48;;;;;;;4.13;1.90;;;11.30;99.90;;;;;;5056819;28;20041;-59
2023/08/30 06:45:16;;;;;;;5.40;1.77;;;11.40;99.90;;;;;;5054586;28;20048;-59
2023/08/30 06:47:48;;;;;;;5.60;1.10;;;11.50;99.90;;;;;;5043952;28;20067;-59
2023/08/30 06:50:15;;;;;;;5.30;2.00;;;11.70;99.90;;;;;;5039676;28;20052;-59
2023/08/30 06:52:43;;;;;;;7.93;1.63;;;11.80;99.90;;;;;;5056009;28;20408;-60
2023/08/30 06:55:11;;;;;;;6.20;1.60;;;11.90;99.90;;;;;;5046342;28;20053;-63
2023/08/30 06:57:39;;;;;;;5.65;1.50;;;12.00;99.90;;;;;;5047543;28;20479;-59
2023/08/30 07:00:07;;;;;;;10.20;2.03;;;12.10;99.90;;;;;;5047960;28;20232;-59
2023/08/30 07:02:37;;;;;;;6.53;1.30;;;12.10;99.90;;;;;;5041743;28;20079;-59
2023/08/30 07:05:06;;;;;;;;;;;12.10;99.90;;;;;;5044203;28;20053;-59
2023/08/30 07:07:33;;;;;;;5.95;1.30;;;12.10;99.90;;;;;;5050166;28;19921;-58
2023/08/30 07:10:01;;;;;;;3.30;1.15;;;12.10;99.90;;;;;;5051582;28;20053;-59
2023/08/30 07:12:29;;;;;;;11.20;1.92;;;12.20;99.90;;;;;;5055784;28;20049;-58
2023/08/30 07:14:56;;;;;;;7.15;1.58;;;12.20;99.90;;;;;;5071366;28;20055;-59
2023/08/30 07:17:24;;;;;;;5.75;1.50;;;12.30;99.90;;;;;;5051203;28;20064;-59
2023/08/30 07:19:58;;;;;;;5.80;1.58;;;12.30;99.90;;;;;;5037853;28;20477;-59
2023/08/30 07:22:26;;;;;;;7.18;1.75;;;12.30;99.90;;;;;;5057582;28;20052;-59
2023/08/30 07:24:53;;;;;;;9.32;1.92;;;12.30;99.90;;;;;;5071387;28;20048;-59
2023/08/30 07:27:21;;;;;;;7.18;1.33;;;12.40;99.90;;;;;;5070968;28;20599;-59
2023/08/30 07:29:49;;;;;;;5.97;1.20;;;12.40;99.90;;;;;;5071447;28;20047;-59
2023/08/30 07:32:17;;;;;;;6.45;1.70;;;12.50;99.90;;;;;;5066376;28;20045;-59
2023/08/30 07:34:44;;;;;;;12.88;2.40;;;12.50;99.90;;;;;;5045489;28;20060;-59
2023/08/30 07:37:22;;;;;;;10.75;1.77;;;12.60;99.90;;;;;;5030881;28;20057;-59
2023/08/30 07:39:51;;;;;;;9.15;1.35;;;12.80;99.90;;;;;;5034581;28;20048;-59
2023/08/30 07:42:19;;;;;;;14.77;2.03;;;12.90;99.90;;;;;;5049730;28;20419;-59
2023/08/30 07:44:46;;;;;;;6.30;1.48;;;12.90;99.90;;;;;;5050997;28;20064;-59
2023/08/30 07:47:14;;;;;;;9.68;1.75;;;13.10;99.90;;;;;;5051032;28;20045;-59
2023/08/30 07:49:42;;;;;;;10.35;1.65;;;13.10;99.90;;;;;;5051868;28;20037;-59
2023/08/30 07:52:10;;;;;;;12.25;1.73;;;13.20;99.90;;;;;;5059192;28;20057;-59
2023/08/30 07:54:40;;;;;;;20.20;1.98;;;13.30;99.90;;;;;;5050237;28;20045;-59
2023/08/30 07:57:08;;;;;;;7.00;1.70;;;13.20;99.90;;;;;;5051096;28;20064;-58
2023/08/30 07:59:37;;;;;;;11.70;3.17;;;13.20;99.90;;;;;;5061115;28;20045;-60
2023/08/30 08:02:07;;;;;;;14.90;2.25;;;13.30;99.90;;;;;;5051001;28;20056;-59
2023/08/30 08:04:35;;;;;;;11.18;2.30;;;13.20;99.90;;;;;;5043380;28;20049;-59
2023/08/30 08:07:04;;;;;;;8.93;2.35;;;13.20;99.90;;;;;;5030343;28;20477;-59
2023/08/30 08:09:33;;;;;;;10.73;1.97;;;13.20;99.90;;;;;;5068245;28;20045;-59
2023/08/30 08:12:01;;;;;;;8.60;1.40;;;13.20;99.90;;;;;;5069478;28;20304;-59
2023/08/30 08:14:29;;;;;;;5.43;1.80;;;13.20;99.90;;;;;;5070472;28;20051;-59
2023/08/30 08:16:56;;;;;;;9.45;1.85;;;13.30;99.90;;;;;;5062308;28;20484;-59
2023/08/30 08:19:25;;;;;;;4.38;1.48;;;13.40;99.90;;;;;;5045146;28;20493;-59
2023/08/30 08:21:56;;;;;;;14.70;1.70;;;13.40;99.90;;;;;;5058415;28;20400;-59
2023/08/30 08:24:24;;;;;;;6.60;1.70;;;13.60;99.90;;;;;;5070360;28;20044;-59
2023/08/30 08:26:51;;;;;;;11.45;1.50;;;13.70;99.90;;;;;;5070266;28;20395;-59
2023/08/30 08:29:19;;;;;;;5.78;1.30;;;13.80;99.90;;;;;;5052653;28;20053;-60
2023/08/30 08:31:47;;;;;;;6.43;1.48;;;14.00;99.90;;;;;;5048749;28;20045;-59
2023/08/30 08:34:14;;;;;;;8.82;1.70;;;14.10;99.90;;;;;;5061576;28;20041;-59
2023/08/30 08:36:42;;;;;;;4.63;1.40;;;14.10;99.90;;;;;;5030326;28;20427;-59
2023/08/30 08:39:10;;;;;;;6.47;1.75;;;14.20;99.90;;;;;;5045555;28;20056;-59
2023/08/30 08:41:43;;;;;;;12.18;1.58;;;14.20;99.90;;;;;;5041075;28;20053;-59
2023/08/30 08:44:13;;;;;;;13.43;2.03;;;14.20;99.90;;;;;;5048080;28;20082;-58
2023/08/30 08:46:41;;;;;;;8.20;1.70;;;14.20;99.90;;;;;;5032544;28;20048;-59
2023/08/30 08:49:13;;;;;;;10.73;2.40;;;14.10;99.90;;;;;;5047133;28;20045;-59
2023/08/30 08:51:43;;;;;;;7.80;2.50;;;14.10;99.90;;;;;;5048424;28;20072;-59
2023/08/30 08:54:12;;;;;;;11.05;1.90;;;14.00;99.90;;;;;;5049508;28;20508;-58
2023/08/30 08:56:40;;;;;;;13.65;2.95;;;14.00;99.90;;;;;;5044704;28;20040;-59
2023/08/30 08:59:08;;;;;;;9.07;1.70;;;14.00;99.90;;;;;;5048313;28;20052;-59
2023/08/30 09:01:39;;;;;;;14.43;2.35;;;14.10;99.90;;;;;;5049551;28;20053;-59
2023/08/30 09:04:09;;;;;;;7.90;2.33;;;14.00;99.90;;;;;;5049068;28;20056;-59
2023/08/30 09:06:39;;;;;;;5.40;1.20;;;14.30;99.90;;;;;;5033444;28;20052;-59
2023/08/30 09:09:08;;;;;;;6.63;1.25;;;14.50;99.90;;;;;;5064504;28;20060;-59
2023/08/30 09:11:36;;;;;;;7.75;1.10;;;14.50;99.90;;;;;;5068840;28;20041;-59
2023/08/30 09:14:17;;;;;;;7.65;1.55;;;14.60;99.90;;;;;;5048960;28;20045;-59
2023/08/30 09:16:56;;;;;;;6.40;1.17;;;14.70;99.90;;;;;;5049069;28;20057;-59
2023/08/30 09:19:24;;;;;;;7.97;1.70;;;14.90;99.90;;;;;;5044788;28;20401;-59
2023/08/30 09:21:53;;;;;;;7.68;1.30;;;15.00;99.90;;;;;;5058901;28;20044;-59
2023/08/30 09:24:22;;;;;;;7.32;2.42;;;15.20;99.90;;;;;;5048609;28;20048;-59
2023/08/30 09:26:51;;;;;;;5.85;1.88;;;15.20;99.90;;;;;;5048694;28;20672;-59
2023/08/30 09:29:20;;;;;;;8.47;2.30;;;15.30;99.90;;;;;;5048684;28;20053;-60
2023/08/30 09:31:52;;;;;;;8.27;1.53;;;15.30;99.90;;;;;;5046007;28;20052;-59
2023/08/30 09:34:26;;;;;;;11.98;1.73;;;15.40;99.90;;;;;;5025705;28;20290;-59
2023/08/30 09:36:55;;;;;;;5.68;1.58;;;15.60;99.90;;;;;;5035228;28;20124;-59
2023/08/30 09:39:23;;;;;;;8.85;1.70;;;15.70;99.90;;;;;;5045452;28;20049;-59
2023/08/30 09:41:51;;;;;;;6.68;1.25;;;15.70;99.90;;;;;;5047264;28;20091;-59
2023/08/30 09:44:24;;;;;;;10.25;1.33;;;15.60;99.90;;;;;;5048031;28;20056;-59
2023/08/30 09:46:54;;;;;;;10.05;1.80;;;15.60;99.90;;;;;;5045741;28;20048;-59
2023/08/30 09:49:24;;;;;;;8.93;1.80;;;15.50;99.90;;;;;;5045266;28;20045;-59
2023/08/30 09:51:53;;;;;;;8.68;1.80;;;15.50;99.90;;;;;;5045160;28;20045;-59
2023/08/30 09:54:23;;;;;;;8.00;1.30;;;15.40;99.90;;;;;;5025792;28;20049;-59
2023/08/30 09:56:56;;;;;;;9.85;2.72;;;15.40;99.90;;;;;;5042466;28;20374;-59
2023/08/30 09:59:24;;;;;;;7.03;1.73;;;15.40;99.90;;;;;;5047841;28;20055;-60
2023/08/30 10:01:53;;;;;;;13.00;1.92;;;15.50;99.90;;;;;;5047059;28;20045;-59
2023/08/30 10:04:22;;;;;;;8.07;1.80;;;15.60;99.90;;;;;;5037624;28;20069;-59
2023/08/30 10:06:51;;;;;;;8.10;1.73;;;15.70;99.90;;;;;;5030334;28;20516;-59
2023/08/30 10:09:19;;;;;;;7.38;2.00;;;15.80;99.90;;;;;;5043046;28;20067;-59
2023/08/30 10:11:48;;;;;;;9.40;1.80;;;16.00;99.90;;;;;;5048233;28;20044;-59
2023/08/30 10:14:17;;;;;;;18.88;3.53;;;16.10;99.90;;;;;;5048427;28;20052;-60
2023/08/30 10:16:49;;;;;;;9.75;2.05;;;16.20;99.90;;;;;;5048127;28;20053;-59
2023/08/30 10:19:27;;;;;;;4.55;1.50;;;16.00;99.90;;;;;;5064252;28;20467;-58
2023/08/30 10:22:08;;;;;;;9.85;1.63;;;15.80;99.90;;;;;;5061970;28;20040;-59
2023/08/30 10:24:43;;;;;;;11.15;1.80;;;15.50;99.90;;;;;;5028391;28;20129;-59
2023/08/30 10:27:34;;;;;;;14.63;1.80;;;15.10;99.90;;;;;;5032575;28;20044;-58
2023/08/30 10:30:05;;;;;;;9.63;1.83;;;14.90;99.90;;;;;;5047650;28;20076;-59
2023/08/30 10:32:41;;;;;;;8.07;2.13;;;14.80;99.90;;;;;;5046315;28;20055;-59
2023/08/30 10:35:14;;;;;;;8.45;1.25;;;14.90;99.90;;;;;;5042126;28;20048;-59
2023/08/30 10:37:42;;;;;;;7.57;1.55;;;15.00;99.90;;;;;;5029505;28;20060;-59
2023/08/30 10:40:11;;;;;;;6.18;1.27;;;15.10;99.90;;;;;;5052922;28;20044;-59
2023/08/30 10:42:40;;;;;;;5.05;2.28;;;15.10;99.90;;;;;;5060498;28;20052;-59
2023/08/30 10:45:08;;;;;;;9.75;1.75;;;15.20;99.90;;;;;;5055061;28;20396;-59
2023/08/30 10:47:41;;;;;;;9.73;1.30;;;15.30;99.90;;;;;;5053731;28;20055;-59
2023/08/30 10:50:13;;;;;;;11.55;1.60;;;15.50;99.90;;;;;;5052368;28;20534;-59
2023/08/30 10:52:41;;;;;;;12.82;1.60;;;15.70;99.90;;;;;;5040598;28;20057;-59
2023/08/30 10:55:15;;;;;;;10.73;1.50;;;15.90;99.90;;;;;;5052659;28;20488;-59
2023/08/30 10:57:45;;;;;;;8.00;1.45;;;16.10;99.90;;;;;;5054209;28;20061;-59
2023/08/30 11:00:20;;;;;;;8.30;1.67;;;16.20;99.90;;;;;;5051921;28;20045;-60
2023/08/30 11:02:49;;;;;;;8.05;1.50;;;16.30;99.90;;;;;;5060574;28;20040;-60
2023/08/30 11:05:20;;;;;;;7.28;1.17;;;16.30;99.90;;;;;;5073167;28;20135;-59
2023/08/30 11:07:49;;;;;;;6.40;1.33;;;16.40;99.90;;;;;;5041620;28;20514;-62
2023/08/30 11:10:18;;;;;;;7.27;1.20;;;16.40;99.90;;;;;;5054269;28;20060;-59
2023/08/30 11:12:49;;;;;;;7.45;0.95;;;16.40;99.90;;;;;;5052948;28;20048;-59
2023/08/30 11:15:17;;;;;;;9.80;1.33;;;16.40;99.90;;;;;;5054358;28;20052;-59
2023/08/30 11:17:46;;;;;;;7.00;1.83;;;16.50;99.90;;;;;;5053338;28;20053;-59
2023/08/30 11:20:16;;;;;;;2.80;0.85;;;16.60;99.90;;;;;;5054875;28;20476;-59
2023/08/30 11:22:46;;;;;;;6.70;1.10;;;16.80;99.90;;;;;;5040993;28;20511;-59
2023/08/30 11:25:15;;;;;;;3.67;0.88;;;16.90;99.90;;;;;;5054149;28;20045;-58
2023/08/30 11:27:43;;;;;;;6.60;1.10;;;17.10;99.90;;;;;;5052762;28;20055;-59
2023/08/30 11:30:11;;;;;;;3.80;0.80;;;17.40;99.90;;;;;;5054290;28;20044;-59
2023/08/30 11:32:44;;;;;;;3.90;0.82;;;17.50;99.90;;;;;;5053697;28;20060;-59
2023/08/30 11:35:11;;;;;;;4.57;0.90;;;17.40;99.90;;;;;;5054333;28;20041;-59
2023/08/30 11:37:41;;;;;;;6.22;0.88;;;17.50;99.90;;;;;;5037802;28;20053;-60
2023/08/30 11:40:11;;;;;;;6.93;0.97;;;17.50;99.90;;;;;;5052682;28;20063;-59
2023/08/30 11:42:39;;;;;;;8.90;1.38;;;17.40;99.90;;;;;;5052720;28;20298;-59
2023/08/30 11:45:08;;;;;;;9.77;1.35;;;17.30;99.90;;;;;;5054246;28;20040;-59
2023/08/30 11:47:35;;;;;;;6.40;1.00;;;17.40;99.90;;;;;;5053826;28;20041;-59
2023/08/30 11:50:05;;;;;;;5.38;1.30;;;17.50;99.90;;;;;;5052627;28;20044;-59
2023/08/30 11:52:34;;;;;;;;;;;17.80;99.90;;;;;;5043225;28;20048;-58
2023/08/30 11:55:02;;;;;;;3.05;0.68;;;18.10;99.90;;;;;;5050396;28;19920;-59
2023/08/30 11:57:34;;;;;;;5.43;1.75;;;18.50;99.90;;;;;;5049973;28;20048;-60
2023/08/30 12:00:13;;;;;;;5.97;1.02;;;18.60;99.90;;;;;;5050403;28;20054;-59
2023/08/30 12:02:41;;;;;;;5.82;0.75;;;18.80;99.90;;;;;;5050355;28;20048;-60
2023/08/30 12:05:15;;;;;;;4.97;0.95;;;19.10;99.90;;;;;;5050610;28;20060;-60
2023/08/30 12:07:45;;;;;;;6.18;0.90;;;19.30;99.90;;;;;;5036152;28;20057;-60
2023/08/30 12:10:13;;;;;;;3.20;0.60;;;19.60;99.90;;;;;;5049271;28;20056;-59
2023/08/30 12:12:45;;;;;;;2.75;0.73;;;19.90;99.90;;;;;;5055166;28;20044;-59
2023/08/30 12:15:17;;;;;;;2.70;0.55;;;20.20;99.90;;;;;;5070721;28;20045;-59
2023/08/30 12:17:44;;;;;;;3.67;0.63;;;20.30;99.90;;;;;;5070124;28;20052;-60
2023/08/30 12:20:20;;;;;;;5.68;0.77;;;20.30;99.90;;;;;;5052699;28;20071;-60
2023/08/30 12:22:50;;;;;;;4.20;0.40;;;20.30;99.90;;;;;;5051338;28;20122;-59
2023/08/30 12:25:36;;;;;;;3.22;0.63;;;20.20;99.90;;;;;;5048960;28;20054;-60
2023/08/30 12:28:04;;;;;;;2.95;0.68;;;20.30;99.90;;;;;;5046375;28;20388;-59
2023/08/30 12:30:31;;;;;;;2.60;0.43;;;20.20;99.90;;;;;;5049085;28;20053;-61
2023/08/30 12:33:03;;;;;;;4.72;0.60;;;20.50;99.90;;;;;;5056270;28;20442;-60
2023/08/30 12:35:31;;;;;;;7.45;1.10;;;20.80;99.90;;;;;;5045567;28;20045;-61
2023/08/30 12:37:59;;;;;;;6.50;0.82;;;21.20;99.90;;;;;;5037334;28;20481;-59
2023/08/30 12:40:27;;;;;;;6.13;0.80;;;21.40;99.90;;;;;;5049781;28;20052;-60
2023/08/30 12:42:54;;;;;;;3.28;0.90;;;21.60;99.90;;;;;;5048890;28;20048;-59
2023/08/30 12:45:22;;;;;;;2.38;0.60;;;21.90;99.90;;;;;;5050263;28;20144;-59
2023/08/30 12:47:50;;;;;;;5.80;1.25;;;21.90;99.90;;;;;;5032060;28;20060;-59
2023/08/30 12:50:17;;;;;;;3.47;0.75;;;21.70;99.90;;;;;;5050762;28;20041;-60
2023/08/30 12:52:45;;;;;;;3.63;1.00;;;21.40;99.90;;;;;;5047872;28;20045;-60
2023/08/30 12:55:15;;;;;;;4.72;0.90;;;21.00;99.90;;;;;;5047469;28;20045;-60
2023/08/30 12:57:46;;;;;;;3.33;1.20;;;20.60;99.90;;;;;;5048729;28;20536;-60